sensor_id;sensor_type;location;lat;lon;timestamp;P1;durP1;ratioP1;P2;durP2;ratioP2
46835;SDS011;32573;51.290;6.926;2022-11-18T00:01:24;3.83;;;1.20;;
46835;SDS011;32573;51.290;6.926;2022-11-18T00:03:52;2.55;;;1.00;;
46835;SDS011;32573;51.290;6.926;2022-11-18T00:06:22;2.25;;;1.02;;
46835;SDS011;32573;51.290;6.926;2022-11-18T00:08:52;2.38;;;1.40;;
46835;SDS011;32573;51.290;6.926;2022-11-18T00:11:23;2.35;;;0.80;;
46835;SDS011;32573;51.290;6.926;2022-11-18T00:14:10;2.95;;;1.23;;
46835;SDS011;32573;51.290;6.926;2022-11-18T00:16:49;3.38;;;1.05;;
46835;SDS011;32573;51.290;6.926;2022-11-18T00:19:19;5.15;;;1.27;;
46835;SDS011;32573;51.290;6.926;2022-11-18T00:21:49;3.35;;;1.10;;
46835;SDS011;32573;51.290;6.926;2022-11-18T00:24:17;3.80;;;1.00;;
46835;SDS011;32573;51.290;6.926;2022-11-18T00:26:46;3.30;;;1.08;;
46835;SDS011;32573;51.290;6.926;2022-11-18T00:29:15;2.90;;;1.00;;
46835;SDS011;32573;51.290;6.926;2022-11-18T00:31:44;2.92;;;1.10;;
46835;SDS011;32573;51.290;6.926;2022-11-18T00:34:15;3.03;;;1.10;;
46835;SDS011;32573;51.290;6.926;2022-11-18T00:36:45;2.60;;;1.10;;
46835;SDS011;32573;51.290;6.926;2022-11-18T00:39:15;2.47;;;1.02;;
46835;SDS011;32573;51.290;6.926;2022-11-18T00:41:45;3.83;;;1.02;;
46835;SDS011;32573;51.290;6.926;2022-11-18T00:44:32;2.67;;;1.00;;
46835;SDS011;32573;51.290;6.926;2022-11-18T00:47:01;3.05;;;1.10;;
46835;SDS011;32573;51.290;6.926;2022-11-18T00:49:31;3.03;;;1.10;;
46835;SDS011;32573;51.290;6.926;2022-11-18T00:51:59;3.00;;;1.10;;
46835;SDS011;32573;51.290;6.926;2022-11-18T00:54:28;2.92;;;1.13;;
46835;SDS011;32573;51.290;6.926;2022-11-18T00:56:56;2.13;;;1.17;;
46835;SDS011;32573;51.290;6.926;2022-11-18T00:59:25;2.70;;;1.10;;
46835;SDS011;32573;51.290;6.926;2022-11-18T01:01:53;4.20;;;1.20;;
46835;SDS011;32573;51.290;6.926;2022-11-18T01:04:21;2.95;;;1.20;;
46835;SDS011;32573;51.290;6.926;2022-11-18T01:06:51;2.72;;;1.10;;
46835;SDS011;32573;51.290;6.926;2022-11-18T01:09:20;2.88;;;0.95;;
46835;SDS011;32573;51.290;6.926;2022-11-18T01:11:48;2.47;;;1.13;;
46835;SDS011;32573;51.290;6.926;2022-11-18T01:14:34;2.95;;;1.10;;
46835;SDS011;32573;51.290;6.926;2022-11-18T01:17:03;3.83;;;1.15;;
46835;SDS011;32573;51.290;6.926;2022-11-18T01:19:31;2.97;;;1.10;;
46835;SDS011;32573;51.290;6.926;2022-11-18T01:22:01;2.08;;;1.20;;
46835;SDS011;32573;51.290;6.926;2022-11-18T01:24:30;4.25;;;1.20;;
46835;SDS011;32573;51.290;6.926;2022-11-18T01:26:59;4.50;;;1.15;;
46835;SDS011;32573;51.290;6.926;2022-11-18T01:29:27;2.92;;;1.10;;
46835;SDS011;32573;51.290;6.926;2022-11-18T01:31:56;2.90;;;1.20;;
46835;SDS011;32573;51.290;6.926;2022-11-18T01:34:44;2.65;;;1.00;;
46835;SDS011;32573;51.290;6.926;2022-11-18T01:37:14;3.22;;;1.20;;
46835;SDS011;32573;51.290;6.926;2022-11-18T01:39:42;3.08;;;1.00;;
46835;SDS011;32573;51.290;6.926;2022-11-18T01:42:12;2.42;;;1.10;;
46835;SDS011;32573;51.290;6.926;2022-11-18T01:44:56;2.22;;;1.00;;
46835;SDS011;32573;51.290;6.926;2022-11-18T01:47:29;2.75;;;1.00;;
46835;SDS011;32573;51.290;6.926;2022-11-18T01:49:59;3.40;;;1.25;;
46835;SDS011;32573;51.290;6.926;2022-11-18T01:52:30;2.60;;;1.05;;
46835;SDS011;32573;51.290;6.926;2022-11-18T01:55:02;2.88;;;1.10;;
46835;SDS011;32573;51.290;6.926;2022-11-18T01:57:34;2.55;;;1.10;;
46835;SDS011;32573;51.290;6.926;2022-11-18T02:00:04;2.75;;;1.10;;
46835;SDS011;32573;51.290;6.926;2022-11-18T02:02:34;3.35;;;1.10;;
46835;SDS011;32573;51.290;6.926;2022-11-18T02:05:05;1.38;;;0.80;;
46835;SDS011;32573;51.290;6.926;2022-11-18T02:07:38;3.03;;;1.05;;
46835;SDS011;32573;51.290;6.926;2022-11-18T02:10:14;3.20;;;1.13;;
46835;SDS011;32573;51.290;6.926;2022-11-18T02:12:46;2.90;;;1.10;;
46835;SDS011;32573;51.290;6.926;2022-11-18T02:15:16;2.75;;;1.08;;
46835;SDS011;32573;51.290;6.926;2022-11-18T02:17:49;3.30;;;1.15;;
46835;SDS011;32573;51.290;6.926;2022-11-18T02:20:32;2.95;;;1.08;;
46835;SDS011;32573;51.290;6.926;2022-11-18T02:23:13;2.83;;;1.08;;
46835;SDS011;32573;51.290;6.926;2022-11-18T02:29:20;2.33;;;0.90;;
46835;SDS011;32573;51.290;6.926;2022-11-18T02:31:54;2.45;;;1.00;;
46835;SDS011;32573;51.290;6.926;2022-11-18T02:34:36;2.88;;;1.00;;
46835;SDS011;32573;51.290;6.926;2022-11-18T02:37:11;2.35;;;1.00;;
46835;SDS011;32573;51.290;6.926;2022-11-18T02:39:46;1.80;;;0.90;;
46835;SDS011;32573;51.290;6.926;2022-11-18T02:42:20;1.67;;;0.90;;
46835;SDS011;32573;51.290;6.926;2022-11-18T02:44:54;2.28;;;0.93;;
46835;SDS011;32573;51.290;6.926;2022-11-18T02:47:27;2.72;;;0.95;;
46835;SDS011;32573;51.290;6.926;2022-11-18T02:49:57;3.08;;;0.90;;
46835;SDS011;32573;51.290;6.926;2022-11-18T02:52:28;2.38;;;0.98;;
46835;SDS011;32573;51.290;6.926;2022-11-18T02:54:59;1.98;;;0.90;;
46835;SDS011;32573;51.290;6.926;2022-11-18T02:57:29;3.72;;;1.10;;
46835;SDS011;32573;51.290;6.926;2022-11-18T03:00:02;2.30;;;0.90;;
46835;SDS011;32573;51.290;6.926;2022-11-18T03:02:38;4.10;;;1.10;;
46835;SDS011;32573;51.290;6.926;2022-11-18T03:05:09;2.33;;;0.98;;
46835;SDS011;32573;51.290;6.926;2022-11-18T03:07:45;2.42;;;0.90;;
46835;SDS011;32573;51.290;6.926;2022-11-18T03:10:17;2.83;;;0.98;;
46835;SDS011;32573;51.290;6.926;2022-11-18T03:12:50;3.63;;;1.15;;
46835;SDS011;32573;51.290;6.926;2022-11-18T03:15:31;1.98;;;0.88;;
46835;SDS011;32573;51.290;6.926;2022-11-18T03:18:06;2.20;;;0.90;;
46835;SDS011;32573;51.290;6.926;2022-11-18T03:20:44;3.03;;;1.00;;
46835;SDS011;32573;51.290;6.926;2022-11-18T03:23:19;2.50;;;0.90;;
46835;SDS011;32573;51.290;6.926;2022-11-18T03:25:53;2.58;;;1.00;;
46835;SDS011;32573;51.290;6.926;2022-11-18T03:28:33;1.52;;;0.80;;
46835;SDS011;32573;51.290;6.926;2022-11-18T03:31:08;2.97;;;1.08;;
46835;SDS011;32573;51.290;6.926;2022-11-18T03:33:42;2.33;;;1.00;;
46835;SDS011;32573;51.290;6.926;2022-11-18T03:36:14;2.58;;;0.90;;
46835;SDS011;32573;51.290;6.926;2022-11-18T03:38:46;2.25;;;1.02;;
46835;SDS011;32573;51.290;6.926;2022-11-18T03:41:18;2.55;;;1.00;;
46835;SDS011;32573;51.290;6.926;2022-11-18T03:43:50;1.83;;;0.90;;
46835;SDS011;32573;51.290;6.926;2022-11-18T03:46:25;1.98;;;1.00;;
46835;SDS011;32573;51.290;6.926;2022-11-18T03:48:57;1.85;;;1.00;;
46835;SDS011;32573;51.290;6.926;2022-11-18T03:51:27;3.65;;;1.08;;
46835;SDS011;32573;51.290;6.926;2022-11-18T03:54:01;3.00;;;1.17;;
46835;SDS011;32573;51.290;6.926;2022-11-18T03:56:35;1.90;;;0.93;;
46835;SDS011;32573;51.290;6.926;2022-11-18T03:59:08;3.53;;;1.00;;
46835;SDS011;32573;51.290;6.926;2022-11-18T04:01:43;3.67;;;1.23;;
46835;SDS011;32573;51.290;6.926;2022-11-18T04:06:44;4.07;;;1.27;;
46835;SDS011;32573;51.290;6.926;2022-11-18T04:09:17;3.30;;;1.08;;
46835;SDS011;32573;51.290;6.926;2022-11-18T04:11:49;3.63;;;1.13;;
46835;SDS011;32573;51.290;6.926;2022-11-18T04:14:32;2.17;;;1.10;;
46835;SDS011;32573;51.290;6.926;2022-11-18T04:17:05;2.42;;;1.10;;
46835;SDS011;32573;51.290;6.926;2022-11-18T04:19:36;2.92;;;1.10;;
46835;SDS011;32573;51.290;6.926;2022-11-18T04:22:04;2.05;;;1.10;;
46835;SDS011;32573;51.290;6.926;2022-11-18T04:24:34;3.85;;;1.13;;
46835;SDS011;32573;51.290;6.926;2022-11-18T04:27:03;4.22;;;1.38;;
46835;SDS011;32573;51.290;6.926;2022-11-18T04:29:32;2.78;;;1.27;;
46835;SDS011;32573;51.290;6.926;2022-11-18T04:32:01;3.40;;;1.33;;
46835;SDS011;32573;51.290;6.926;2022-11-18T04:34:32;3.55;;;1.30;;
46835;SDS011;32573;51.290;6.926;2022-11-18T04:37:00;2.40;;;1.02;;
46835;SDS011;32573;51.290;6.926;2022-11-18T04:39:29;2.45;;;1.10;;
46835;SDS011;32573;51.290;6.926;2022-11-18T04:41:57;2.15;;;1.02;;
46835;SDS011;32573;51.290;6.926;2022-11-18T04:44:26;2.55;;;1.23;;
46835;SDS011;32573;51.290;6.926;2022-11-18T04:46:56;2.35;;;1.02;;
46835;SDS011;32573;51.290;6.926;2022-11-18T04:49:25;3.08;;;1.33;;
46835;SDS011;32573;51.290;6.926;2022-11-18T04:51:56;3.00;;;1.05;;
46835;SDS011;32573;51.290;6.926;2022-11-18T04:54:25;2.15;;;1.10;;
46835;SDS011;32573;51.290;6.926;2022-11-18T04:56:54;3.05;;;1.15;;
46835;SDS011;32573;51.290;6.926;2022-11-18T04:59:24;2.28;;;1.13;;
46835;SDS011;32573;51.290;6.926;2022-11-18T05:01:53;2.47;;;1.10;;
46835;SDS011;32573;51.290;6.926;2022-11-18T05:04:22;2.80;;;1.27;;
46835;SDS011;32573;51.290;6.926;2022-11-18T05:06:52;3.10;;;1.13;;
46835;SDS011;32573;51.290;6.926;2022-11-18T05:09:22;3.38;;;1.40;;
46835;SDS011;32573;51.290;6.926;2022-11-18T05:11:57;3.63;;;1.35;;
46835;SDS011;32573;51.290;6.926;2022-11-18T05:14:43;2.70;;;1.10;;
46835;SDS011;32573;51.290;6.926;2022-11-18T05:17:16;2.45;;;1.05;;
46835;SDS011;32573;51.290;6.926;2022-11-18T05:19:46;3.47;;;1.20;;
46835;SDS011;32573;51.290;6.926;2022-11-18T05:22:14;2.80;;;1.20;;
46835;SDS011;32573;51.290;6.926;2022-11-18T05:24:44;3.92;;;1.50;;
46835;SDS011;32573;51.290;6.926;2022-11-18T05:27:13;3.17;;;1.30;;
46835;SDS011;32573;51.290;6.926;2022-11-18T05:29:42;2.90;;;1.20;;
46835;SDS011;32573;51.290;6.926;2022-11-18T05:32:10;3.28;;;1.23;;
46835;SDS011;32573;51.290;6.926;2022-11-18T05:34:39;3.78;;;1.40;;
46835;SDS011;32573;51.290;6.926;2022-11-18T05:37:08;3.03;;;1.20;;
46835;SDS011;32573;51.290;6.926;2022-11-18T05:39:37;3.72;;;1.60;;
46835;SDS011;32573;51.290;6.926;2022-11-18T05:42:06;3.40;;;1.20;;
46835;SDS011;32573;51.290;6.926;2022-11-18T05:45:07;4.60;;;1.52;;
46835;SDS011;32573;51.290;6.926;2022-11-18T05:47:36;4.07;;;1.38;;
46835;SDS011;32573;51.290;6.926;2022-11-18T05:50:25;4.38;;;1.52;;
46835;SDS011;32573;51.290;6.926;2022-11-18T05:52:53;4.00;;;1.35;;
46835;SDS011;32573;51.290;6.926;2022-11-18T05:55:22;5.25;;;1.60;;
46835;SDS011;32573;51.290;6.926;2022-11-18T05:57:55;3.80;;;1.35;;
46835;SDS011;32573;51.290;6.926;2022-11-18T06:00:24;3.45;;;1.30;;
46835;SDS011;32573;51.290;6.926;2022-11-18T06:02:52;3.45;;;1.40;;
46835;SDS011;32573;51.290;6.926;2022-11-18T06:05:22;2.88;;;1.17;;
46835;SDS011;32573;51.290;6.926;2022-11-18T06:07:53;4.20;;;1.50;;
46835;SDS011;32573;51.290;6.926;2022-11-18T06:10:24;3.38;;;1.48;;
46835;SDS011;32573;51.290;6.926;2022-11-18T06:12:58;3.65;;;1.58;;
46835;SDS011;32573;51.290;6.926;2022-11-18T06:15:31;2.80;;;1.30;;
46835;SDS011;32573;51.290;6.926;2022-11-18T06:18:03;3.70;;;1.40;;
46835;SDS011;32573;51.290;6.926;2022-11-18T06:20:35;3.78;;;1.40;;
46835;SDS011;32573;51.290;6.926;2022-11-18T06:23:05;3.17;;;1.50;;
46835;SDS011;32573;51.290;6.926;2022-11-18T06:25:35;3.75;;;1.30;;
46835;SDS011;32573;51.290;6.926;2022-11-18T06:28:06;3.55;;;1.50;;
46835;SDS011;32573;51.290;6.926;2022-11-18T06:30:39;3.88;;;1.30;;
46835;SDS011;32573;51.290;6.926;2022-11-18T06:33:07;3.58;;;1.40;;
46835;SDS011;32573;51.290;6.926;2022-11-18T06:35:35;3.28;;;1.35;;
46835;SDS011;32573;51.290;6.926;2022-11-18T06:38:04;3.92;;;1.55;;
46835;SDS011;32573;51.290;6.926;2022-11-18T06:40:32;3.83;;;1.45;;
46835;SDS011;32573;51.290;6.926;2022-11-18T06:43:04;3.25;;;1.17;;
46835;SDS011;32573;51.290;6.926;2022-11-18T06:45:52;3.63;;;1.35;;
46835;SDS011;32573;51.290;6.926;2022-11-18T06:48:38;3.92;;;1.38;;
46835;SDS011;32573;51.290;6.926;2022-11-18T06:51:06;3.35;;;1.30;;
46835;SDS011;32573;51.290;6.926;2022-11-18T06:53:35;3.47;;;1.23;;
46835;SDS011;32573;51.290;6.926;2022-11-18T06:56:04;4.53;;;1.42;;
46835;SDS011;32573;51.290;6.926;2022-11-18T06:58:34;4.20;;;1.42;;
46835;SDS011;32573;51.290;6.926;2022-11-18T07:01:08;3.28;;;1.50;;
46835;SDS011;32573;51.290;6.926;2022-11-18T07:03:38;3.10;;;1.30;;
46835;SDS011;32573;51.290;6.926;2022-11-18T07:06:07;3.03;;;1.30;;
46835;SDS011;32573;51.290;6.926;2022-11-18T07:08:36;3.20;;;1.38;;
46835;SDS011;32573;51.290;6.926;2022-11-18T07:11:07;3.30;;;1.42;;
46835;SDS011;32573;51.290;6.926;2022-11-18T07:13:36;4.13;;;1.80;;
46835;SDS011;32573;51.290;6.926;2022-11-18T07:16:11;3.90;;;1.77;;
46835;SDS011;32573;51.290;6.926;2022-11-18T07:18:41;4.50;;;1.90;;
46835;SDS011;32573;51.290;6.926;2022-11-18T07:21:12;3.95;;;1.73;;
46835;SDS011;32573;51.290;6.926;2022-11-18T07:23:41;4.63;;;1.83;;
46835;SDS011;32573;51.290;6.926;2022-11-18T07:26:10;3.95;;;1.70;;
46835;SDS011;32573;51.290;6.926;2022-11-18T07:28:39;4.00;;;1.77;;
46835;SDS011;32573;51.290;6.926;2022-11-18T07:31:08;4.05;;;1.85;;
46835;SDS011;32573;51.290;6.926;2022-11-18T07:33:39;5.07;;;2.05;;
46835;SDS011;32573;51.290;6.926;2022-11-18T07:36:09;4.20;;;1.67;;
46835;SDS011;32573;51.290;6.926;2022-11-18T07:38:39;4.88;;;2.13;;
46835;SDS011;32573;51.290;6.926;2022-11-18T07:41:08;4.45;;;2.03;;
46835;SDS011;32573;51.290;6.926;2022-11-18T07:43:39;4.68;;;2.40;;
46835;SDS011;32573;51.290;6.926;2022-11-18T07:46:09;5.50;;;2.30;;
46835;SDS011;32573;51.290;6.926;2022-11-18T07:48:41;4.47;;;2.15;;
46835;SDS011;32573;51.290;6.926;2022-11-18T07:51:11;8.27;;;3.55;;
46835;SDS011;32573;51.290;6.926;2022-11-18T07:53:40;6.90;;;2.45;;
46835;SDS011;32573;51.290;6.926;2022-11-18T07:56:08;5.43;;;2.03;;
46835;SDS011;32573;51.290;6.926;2022-11-18T07:58:38;5.75;;;2.05;;
46835;SDS011;32573;51.290;6.926;2022-11-18T08:01:07;4.30;;;2.00;;
46835;SDS011;32573;51.290;6.926;2022-11-18T08:03:36;5.03;;;2.00;;
46835;SDS011;32573;51.290;6.926;2022-11-18T08:06:08;4.03;;;1.77;;
46835;SDS011;32573;51.290;6.926;2022-11-18T08:08:37;4.55;;;1.67;;
46835;SDS011;32573;51.290;6.926;2022-11-18T08:11:07;4.20;;;1.73;;
46835;SDS011;32573;51.290;6.926;2022-11-18T08:13:36;3.97;;;1.50;;
46835;SDS011;32573;51.290;6.926;2022-11-18T08:16:10;3.17;;;1.45;;
46835;SDS011;32573;51.290;6.926;2022-11-18T08:18:40;3.80;;;1.60;;
46835;SDS011;32573;51.290;6.926;2022-11-18T08:21:10;4.50;;;1.85;;
46835;SDS011;32573;51.290;6.926;2022-11-18T08:23:39;4.78;;;1.63;;
46835;SDS011;32573;51.290;6.926;2022-11-18T08:26:09;4.25;;;1.60;;
46835;SDS011;32573;51.290;6.926;2022-11-18T08:28:39;3.72;;;1.67;;
46835;SDS011;32573;51.290;6.926;2022-11-18T08:31:09;3.72;;;1.75;;
46835;SDS011;32573;51.290;6.926;2022-11-18T08:33:38;6.30;;;1.67;;
46835;SDS011;32573;51.290;6.926;2022-11-18T08:36:07;5.30;;;1.50;;
46835;SDS011;32573;51.290;6.926;2022-11-18T08:38:39;4.72;;;1.60;;
46835;SDS011;32573;51.290;6.926;2022-11-18T08:41:09;3.80;;;1.50;;
46835;SDS011;32573;51.290;6.926;2022-11-18T08:43:39;3.95;;;1.70;;
46835;SDS011;32573;51.290;6.926;2022-11-18T08:46:08;4.05;;;1.65;;
46835;SDS011;32573;51.290;6.926;2022-11-18T08:48:36;4.53;;;1.73;;
46835;SDS011;32573;51.290;6.926;2022-11-18T08:51:05;4.65;;;1.80;;
46835;SDS011;32573;51.290;6.926;2022-11-18T08:53:38;3.42;;;1.60;;
46835;SDS011;32573;51.290;6.926;2022-11-18T08:56:06;4.93;;;1.95;;
46835;SDS011;32573;51.290;6.926;2022-11-18T08:58:41;4.05;;;1.90;;
46835;SDS011;32573;51.290;6.926;2022-11-18T09:01:10;5.90;;;1.73;;
46835;SDS011;32573;51.290;6.926;2022-11-18T09:03:39;3.85;;;1.73;;
46835;SDS011;32573;51.290;6.926;2022-11-18T09:06:10;3.80;;;1.90;;
46835;SDS011;32573;51.290;6.926;2022-11-18T09:08:41;3.45;;;1.58;;
46835;SDS011;32573;51.290;6.926;2022-11-18T09:11:11;4.70;;;2.05;;
46835;SDS011;32573;51.290;6.926;2022-11-18T09:13:41;4.90;;;1.80;;
46835;SDS011;32573;51.290;6.926;2022-11-18T09:16:31;3.72;;;1.73;;
46835;SDS011;32573;51.290;6.926;2022-11-18T09:19:00;3.95;;;1.85;;
46835;SDS011;32573;51.290;6.926;2022-11-18T09:21:50;4.18;;;2.00;;
46835;SDS011;32573;51.290;6.926;2022-11-18T09:24:18;4.18;;;1.90;;
46835;SDS011;32573;51.290;6.926;2022-11-18T09:26:47;3.80;;;1.60;;
46835;SDS011;32573;51.290;6.926;2022-11-18T09:29:16;3.58;;;1.65;;
46835;SDS011;32573;51.290;6.926;2022-11-18T09:31:44;3.42;;;1.60;;
46835;SDS011;32573;51.290;6.926;2022-11-18T09:34:13;4.00;;;1.80;;
46835;SDS011;32573;51.290;6.926;2022-11-18T09:36:42;4.18;;;1.77;;
46835;SDS011;32573;51.290;6.926;2022-11-18T09:39:12;3.80;;;1.70;;
46835;SDS011;32573;51.290;6.926;2022-11-18T09:41:44;5.47;;;2.22;;
46835;SDS011;32573;51.290;6.926;2022-11-18T09:44:20;4.50;;;2.03;;
46835;SDS011;32573;51.290;6.926;2022-11-18T09:47:03;6.60;;;2.70;;
46835;SDS011;32573;51.290;6.926;2022-11-18T09:49:41;5.07;;;1.80;;
46835;SDS011;32573;51.290;6.926;2022-11-18T09:52:12;5.32;;;1.75;;
46835;SDS011;32573;51.290;6.926;2022-11-18T09:54:48;3.83;;;1.55;;
46835;SDS011;32573;51.290;6.926;2022-11-18T09:57:18;5.18;;;1.80;;
46835;SDS011;32573;51.290;6.926;2022-11-18T09:59:48;3.75;;;1.70;;
46835;SDS011;32573;51.290;6.926;2022-11-18T10:02:24;3.80;;;1.70;;
46835;SDS011;32573;51.290;6.926;2022-11-18T10:04:56;3.35;;;1.33;;
46835;SDS011;32573;51.290;6.926;2022-11-18T10:07:36;5.43;;;2.08;;
46835;SDS011;32573;51.290;6.926;2022-11-18T10:10:12;5.13;;;2.00;;
46835;SDS011;32573;51.290;6.926;2022-11-18T10:12:48;4.88;;;2.00;;
46835;SDS011;32573;51.290;6.926;2022-11-18T10:15:21;5.25;;;1.95;;
46835;SDS011;32573;51.290;6.926;2022-11-18T10:17:58;3.50;;;1.70;;
46835;SDS011;32573;51.290;6.926;2022-11-18T10:20:37;4.00;;;1.50;;
46835;SDS011;32573;51.290;6.926;2022-11-18T10:23:18;3.38;;;1.48;;
46835;SDS011;32573;51.290;6.926;2022-11-18T10:25:52;4.18;;;1.63;;
46835;SDS011;32573;51.290;6.926;2022-11-18T10:28:21;3.97;;;1.45;;
46835;SDS011;32573;51.290;6.926;2022-11-18T10:30:52;3.92;;;1.58;;
46835;SDS011;32573;51.290;6.926;2022-11-18T10:33:24;3.60;;;1.92;;
46835;SDS011;32573;51.290;6.926;2022-11-18T10:36:07;6.13;;;1.70;;
46835;SDS011;32573;51.290;6.926;2022-11-18T10:38:46;4.18;;;1.90;;
46835;SDS011;32573;51.290;6.926;2022-11-18T10:41:17;4.93;;;1.60;;
46835;SDS011;32573;51.290;6.926;2022-11-18T10:43:48;4.13;;;1.65;;
46835;SDS011;32573;51.290;6.926;2022-11-18T10:46:22;5.32;;;1.63;;
46835;SDS011;32573;51.290;6.926;2022-11-18T10:51:39;3.55;;;1.40;;
46835;SDS011;32573;51.290;6.926;2022-11-18T10:54:12;3.90;;;1.50;;
46835;SDS011;32573;51.290;6.926;2022-11-18T10:56:44;4.07;;;1.70;;
46835;SDS011;32573;51.290;6.926;2022-11-18T10:59:20;4.00;;;1.77;;
46835;SDS011;32573;51.290;6.926;2022-11-18T11:01:56;5.03;;;1.70;;
46835;SDS011;32573;51.290;6.926;2022-11-18T11:04:32;5.32;;;1.73;;
46835;SDS011;32573;51.290;6.926;2022-11-18T11:07:13;4.30;;;1.42;;
46835;SDS011;32573;51.290;6.926;2022-11-18T11:09:43;5.65;;;1.70;;
46835;SDS011;32573;51.290;6.926;2022-11-18T11:12:14;4.18;;;1.75;;
46835;SDS011;32573;51.290;6.926;2022-11-18T11:14:46;4.43;;;1.50;;
46835;SDS011;32573;51.290;6.926;2022-11-18T11:17:20;3.85;;;1.50;;
46835;SDS011;32573;51.290;6.926;2022-11-18T11:19:55;5.05;;;1.75;;
46835;SDS011;32573;51.290;6.926;2022-11-18T11:22:30;6.15;;;1.90;;
46835;SDS011;32573;51.290;6.926;2022-11-18T11:24:58;5.32;;;1.40;;
46835;SDS011;32573;51.290;6.926;2022-11-18T11:27:38;4.82;;;1.40;;
46835;SDS011;32573;51.290;6.926;2022-11-18T11:30:37;6.15;;;1.70;;
46835;SDS011;32573;51.290;6.926;2022-11-18T11:33:21;4.75;;;1.40;;
46835;SDS011;32573;51.290;6.926;2022-11-18T11:36:07;4.05;;;1.58;;
46835;SDS011;32573;51.290;6.926;2022-11-18T11:41:25;4.18;;;1.45;;
46835;SDS011;32573;51.290;6.926;2022-11-18T11:44:03;3.53;;;1.40;;
46835;SDS011;32573;51.290;6.926;2022-11-18T11:46:46;5.03;;;1.85;;
46835;SDS011;32573;51.290;6.926;2022-11-18T11:49:40;5.40;;;1.55;;
46835;SDS011;32573;51.290;6.926;2022-11-18T11:52:17;4.88;;;1.52;;
46835;SDS011;32573;51.290;6.926;2022-11-18T11:54:54;4.43;;;1.50;;
46835;SDS011;32573;51.290;6.926;2022-11-18T11:57:37;4.85;;;1.55;;
46835;SDS011;32573;51.290;6.926;2022-11-18T12:00:17;5.85;;;1.60;;
46835;SDS011;32573;51.290;6.926;2022-11-18T12:02:58;3.85;;;1.77;;
46835;SDS011;32573;51.290;6.926;2022-11-18T12:05:33;5.65;;;1.50;;
46835;SDS011;32573;51.290;6.926;2022-11-18T12:08:05;5.80;;;1.63;;
46835;SDS011;32573;51.290;6.926;2022-11-18T12:10:43;4.40;;;1.48;;
46835;SDS011;32573;51.290;6.926;2022-11-18T12:13:24;3.75;;;1.40;;
46835;SDS011;32573;51.290;6.926;2022-11-18T12:16:13;7.68;;;1.48;;
46835;SDS011;32573;51.290;6.926;2022-11-18T12:18:49;3.38;;;1.20;;
46835;SDS011;32573;51.290;6.926;2022-11-18T12:24:27;4.03;;;1.40;;
46835;SDS011;32573;51.290;6.926;2022-11-18T12:27:03;4.75;;;1.40;;
46835;SDS011;32573;51.290;6.926;2022-11-18T12:30:02;4.40;;;1.50;;
46835;SDS011;32573;51.290;6.926;2022-11-18T12:32:33;5.88;;;1.60;;
46835;SDS011;32573;51.290;6.926;2022-11-18T12:35:22;3.58;;;1.60;;
46835;SDS011;32573;51.290;6.926;2022-11-18T12:37:57;3.47;;;1.50;;
46835;SDS011;32573;51.290;6.926;2022-11-18T12:40:31;6.38;;;1.70;;
46835;SDS011;32573;51.290;6.926;2022-11-18T12:43:04;5.07;;;1.45;;
46835;SDS011;32573;51.290;6.926;2022-11-18T12:45:52;3.08;;;1.10;;
46835;SDS011;32573;51.290;6.926;2022-11-18T12:48:28;4.10;;;1.50;;
46835;SDS011;32573;51.290;6.926;2022-11-18T12:51:01;4.93;;;1.50;;
46835;SDS011;32573;51.290;6.926;2022-11-18T12:53:38;5.03;;;1.40;;
46835;SDS011;32573;51.290;6.926;2022-11-18T12:56:09;4.55;;;1.40;;
46835;SDS011;32573;51.290;6.926;2022-11-18T12:58:48;5.35;;;1.63;;
46835;SDS011;32573;51.290;6.926;2022-11-18T13:01:19;4.57;;;1.33;;
46835;SDS011;32573;51.290;6.926;2022-11-18T13:03:50;5.18;;;1.45;;
46835;SDS011;32573;51.290;6.926;2022-11-18T13:06:23;5.00;;;1.40;;
46835;SDS011;32573;51.290;6.926;2022-11-18T13:08:53;4.55;;;1.20;;
46835;SDS011;32573;51.290;6.926;2022-11-18T13:11:25;6.68;;;1.60;;
46835;SDS011;32573;51.290;6.926;2022-11-18T13:14:13;4.43;;;1.45;;
46835;SDS011;32573;51.290;6.926;2022-11-18T13:17:01;4.75;;;1.50;;
46835;SDS011;32573;51.290;6.926;2022-11-18T13:20:00;5.03;;;1.40;;
46835;SDS011;32573;51.290;6.926;2022-11-18T13:22:28;3.58;;;1.40;;
46835;SDS011;32573;51.290;6.926;2022-11-18T13:25:23;4.17;;;1.23;;
46835;SDS011;32573;51.290;6.926;2022-11-18T13:27:55;3.33;;;1.40;;
46835;SDS011;32573;51.290;6.926;2022-11-18T13:30:29;3.65;;;1.40;;
46835;SDS011;32573;51.290;6.926;2022-11-18T13:33:02;4.30;;;1.40;;
46835;SDS011;32573;51.290;6.926;2022-11-18T13:35:31;4.68;;;1.60;;
46835;SDS011;32573;51.290;6.926;2022-11-18T13:38:00;6.28;;;1.80;;
46835;SDS011;32573;51.290;6.926;2022-11-18T13:40:29;6.70;;;2.00;;
46835;SDS011;32573;51.290;6.926;2022-11-18T13:43:05;5.50;;;2.00;;
46835;SDS011;32573;51.290;6.926;2022-11-18T13:45:37;5.85;;;1.90;;
46835;SDS011;32573;51.290;6.926;2022-11-18T13:48:08;4.72;;;2.20;;
46835;SDS011;32573;51.290;6.926;2022-11-18T13:50:41;4.13;;;1.80;;
46835;SDS011;32573;51.290;6.926;2022-11-18T13:53:18;5.32;;;1.73;;
46835;SDS011;32573;51.290;6.926;2022-11-18T13:55:57;5.47;;;2.05;;
46835;SDS011;32573;51.290;6.926;2022-11-18T13:58:30;6.10;;;1.75;;
46835;SDS011;32573;51.290;6.926;2022-11-18T14:01:21;5.50;;;1.95;;
46835;SDS011;32573;51.290;6.926;2022-11-18T14:03:52;4.68;;;1.85;;
46835;SDS011;32573;51.290;6.926;2022-11-18T14:06:27;4.72;;;1.73;;
46835;SDS011;32573;51.290;6.926;2022-11-18T14:09:03;5.65;;;2.53;;
46835;SDS011;32573;51.290;6.926;2022-11-18T14:11:35;5.00;;;2.20;;
46835;SDS011;32573;51.290;6.926;2022-11-18T14:14:04;4.32;;;1.95;;
46835;SDS011;32573;51.290;6.926;2022-11-18T14:16:34;4.78;;;1.98;;
46835;SDS011;32573;51.290;6.926;2022-11-18T14:19:04;4.55;;;1.70;;
46835;SDS011;32573;51.290;6.926;2022-11-18T14:21:35;5.78;;;1.90;;
46835;SDS011;32573;51.290;6.926;2022-11-18T14:24:04;4.57;;;2.10;;
46835;SDS011;32573;51.290;6.926;2022-11-18T14:26:34;5.10;;;1.88;;
46835;SDS011;32573;51.290;6.926;2022-11-18T14:29:13;3.70;;;1.80;;
46835;SDS011;32573;51.290;6.926;2022-11-18T14:32:01;4.55;;;1.85;;
46835;SDS011;32573;51.290;6.926;2022-11-18T14:34:31;4.00;;;1.90;;
46835;SDS011;32573;51.290;6.926;2022-11-18T14:37:01;5.22;;;1.98;;
46835;SDS011;32573;51.290;6.926;2022-11-18T14:39:36;5.10;;;2.05;;
46835;SDS011;32573;51.290;6.926;2022-11-18T14:42:08;3.78;;;1.88;;
46835;SDS011;32573;51.290;6.926;2022-11-18T14:44:38;4.55;;;2.13;;
46835;SDS011;32573;51.290;6.926;2022-11-18T14:47:10;4.75;;;2.20;;
46835;SDS011;32573;51.290;6.926;2022-11-18T14:49:44;5.32;;;2.38;;
46835;SDS011;32573;51.290;6.926;2022-11-18T14:52:14;5.20;;;2.42;;
46835;SDS011;32573;51.290;6.926;2022-11-18T14:54:42;4.70;;;2.25;;
46835;SDS011;32573;51.290;6.926;2022-11-18T14:57:11;6.22;;;2.67;;
46835;SDS011;32573;51.290;6.926;2022-11-18T14:59:42;4.53;;;2.20;;
46835;SDS011;32573;51.290;6.926;2022-11-18T15:02:12;4.85;;;2.17;;
46835;SDS011;32573;51.290;6.926;2022-11-18T15:04:42;4.85;;;2.22;;
46835;SDS011;32573;51.290;6.926;2022-11-18T15:07:11;5.03;;;2.47;;
46835;SDS011;32573;51.290;6.926;2022-11-18T15:09:50;5.18;;;2.13;;
46835;SDS011;32573;51.290;6.926;2022-11-18T15:12:18;4.82;;;2.20;;
46835;SDS011;32573;51.290;6.926;2022-11-18T15:14:46;4.30;;;2.10;;
46835;SDS011;32573;51.290;6.926;2022-11-18T15:17:15;5.40;;;2.17;;
46835;SDS011;32573;51.290;6.926;2022-11-18T15:19:46;4.57;;;2.00;;
46835;SDS011;32573;51.290;6.926;2022-11-18T15:22:14;6.35;;;2.13;;
46835;SDS011;32573;51.290;6.926;2022-11-18T15:24:43;5.82;;;2.33;;
46835;SDS011;32573;51.290;6.926;2022-11-18T15:27:13;5.28;;;2.38;;
46835;SDS011;32573;51.290;6.926;2022-11-18T15:29:41;4.28;;;1.90;;
46835;SDS011;32573;51.290;6.926;2022-11-18T15:32:09;4.88;;;2.20;;
46835;SDS011;32573;51.290;6.926;2022-11-18T15:34:38;4.97;;;2.17;;
46835;SDS011;32573;51.290;6.926;2022-11-18T15:37:08;4.63;;;2.30;;